createdAt,value
2023-01-09T00:00:41.719Z,10.74
2023-01-09T00:03:09.466Z,10.73
2023-01-09T00:05:36.893Z,10.61
2023-01-09T00:08:04.428Z,10.63
2023-01-09T00:10:32.124Z,10.69
2023-01-09T00:12:59.651Z,10.48
2023-01-09T00:15:27.130Z,10.51
2023-01-09T00:17:54.797Z,10.50
2023-01-09T00:20:22.169Z,10.60
2023-01-09T00:22:49.613Z,10.59
2023-01-09T00:25:17.252Z,10.56
2023-01-09T00:27:44.644Z,10.55
2023-01-09T00:30:12.384Z,10.47
2023-01-09T00:32:40.545Z,10.51
2023-01-09T00:35:09.326Z,10.62
2023-01-09T00:37:36.766Z,10.56
2023-01-09T00:40:04.680Z,10.58
2023-01-09T00:42:33.741Z,10.51
2023-01-09T00:45:04.664Z,10.54
2023-01-09T00:47:42.852Z,10.46
2023-01-09T00:50:14.806Z,10.49
2023-01-09T00:52:43.015Z,10.41
2023-01-09T00:55:10.490Z,10.43
2023-01-09T00:57:37.958Z,10.52
2023-01-09T01:00:06.547Z,10.46
2023-01-09T01:02:33.964Z,10.41
2023-01-09T01:05:20.010Z,10.49
2023-01-09T01:07:47.640Z,10.61
2023-01-09T01:10:22.803Z,10.58
2023-01-09T01:12:51.243Z,10.52
2023-01-09T01:15:19.512Z,10.55
2023-01-09T01:17:47.296Z,10.50
2023-01-09T01:20:16.970Z,10.53
2023-01-09T01:22:44.437Z,10.53
2023-01-09T01:25:13.339Z,10.41
2023-01-09T01:27:41.421Z,10.46
2023-01-09T01:30:11.170Z,10.48
2023-01-09T01:32:38.793Z,10.60
2023-01-09T01:35:07.557Z,10.56
2023-01-09T01:37:36.095Z,10.50
2023-01-09T01:40:04.700Z,10.59
2023-01-09T01:42:32.627Z,10.68
2023-01-09T01:45:06.537Z,10.77
2023-01-09T01:47:49.414Z,10.86
2023-01-09T01:50:34.780Z,10.80
2023-01-09T01:53:17.671Z,10.91
2023-01-09T01:55:45.724Z,10.94
2023-01-09T01:58:14.750Z,11.20
2023-01-09T02:00:47.220Z,11.11
2023-01-09T02:03:19.533Z,11.15
2023-01-09T02:05:47.404Z,11.14
2023-01-09T02:08:15.173Z,11.29
2023-01-09T02:10:42.725Z,11.31
2023-01-09T02:13:11.116Z,11.36
2023-01-09T02:15:41.524Z,11.48
2023-01-09T02:18:27.477Z,11.61
2023-01-09T02:21:36.711Z,11.61
2023-01-09T02:24:34.004Z,11.61
2023-01-09T02:27:24.044Z,11.68
2023-01-09T02:30:10.230Z,11.74
2023-01-09T02:33:14.995Z,11.80
2023-01-09T02:35:52.753Z,11.76
2023-01-09T02:38:36.999Z,11.77
2023-01-09T02:41:15.973Z,11.77
2023-01-09T02:43:43.607Z,11.95
2023-01-09T02:46:22.067Z,11.90
2023-01-09T02:48:51.119Z,11.84
2023-01-09T02:51:37.018Z,11.86
2023-01-09T02:54:20.472Z,11.86
2023-01-09T02:56:57.028Z,11.94
2023-01-09T02:59:34.618Z,11.91
2023-01-09T03:02:09.915Z,11.98
2023-01-09T03:05:01.591Z,11.97
2023-01-09T03:07:31.979Z,11.94
2023-01-09T03:10:10.621Z,11.99
2023-01-09T03:12:38.411Z,11.99
2023-01-09T03:15:07.218Z,12.03
2023-01-09T03:17:39.730Z,12.07
2023-01-09T03:20:09.417Z,12.00
2023-01-09T03:22:36.905Z,12.06
2023-01-09T03:25:04.579Z,12.05
2023-01-09T03:27:32.479Z,12.06
2023-01-09T03:29:59.811Z,12.02
2023-01-09T03:32:27.927Z,12.04
2023-01-09T03:34:55.567Z,12.01
2023-01-09T03:37:22.929Z,12.04
2023-01-09T03:39:50.281Z,12.03
2023-01-09T03:42:17.952Z,12.04
2023-01-09T03:44:45.297Z,12.07
2023-01-09T03:47:12.751Z,12.10
2023-01-09T03:49:40.606Z,12.15
2023-01-09T03:52:07.962Z,12.14
2023-01-09T03:54:35.392Z,12.08
2023-01-09T03:57:03.118Z,12.07
2023-01-09T03:59:30.517Z,12.03
2023-01-09T04:01:58.000Z,12.07
2023-01-09T04:04:25.777Z,12.08
2023-01-09T04:06:53.184Z,12.06
2023-01-09T04:09:20.655Z,12.10
2023-01-09T04:11:48.318Z,12.08
2023-01-09T04:14:16.333Z,12.10
2023-01-09T04:16:43.832Z,12.12
2023-01-09T04:19:11.535Z,12.15
2023-01-09T04:21:38.931Z,12.21
2023-01-09T04:24:06.660Z,12.15
2023-01-09T04:26:34.334Z,12.16
2023-01-09T04:29:01.807Z,12.22
2023-01-09T04:31:29.216Z,12.21
2023-01-09T04:33:56.904Z,12.07
2023-01-09T04:36:24.300Z,12.15
2023-01-09T04:38:51.630Z,12.18
2023-01-09T04:41:38.062Z,12.08
2023-01-09T04:44:05.663Z,11.99
2023-01-09T04:46:33.296Z,11.96
2023-01-09T04:49:00.690Z,11.92
2023-01-09T04:51:28.033Z,11.98
2023-01-09T04:53:55.643Z,12.00
2023-01-09T04:56:23.100Z,12.03
2023-01-09T04:58:50.574Z,12.05
2023-01-09T05:01:18.338Z,12.03
2023-01-09T05:03:45.709Z,12.00
2023-01-09T05:06:13.197Z,12.11
2023-01-09T05:08:40.843Z,12.15
2023-01-09T05:11:08.307Z,12.13
2023-01-09T05:13:35.704Z,12.09
2023-01-09T05:16:03.410Z,12.07
2023-01-09T05:18:30.912Z,12.06
2023-01-09T05:20:58.253Z,12.01
2023-01-09T05:23:25.937Z,11.97
2023-01-09T05:25:53.305Z,12.04
2023-01-09T05:28:20.644Z,11.90
2023-01-09T05:30:48.567Z,11.94
2023-01-09T05:33:16.001Z,11.94
2023-01-09T05:35:43.574Z,11.92
2023-01-09T05:38:11.780Z,11.91
2023-01-09T05:40:40.535Z,11.99
2023-01-09T05:43:08.570Z,12.09
2023-01-09T05:45:36.340Z,12.07
2023-01-09T05:48:03.858Z,11.97
2023-01-09T05:50:31.273Z,12.06
2023-01-09T05:52:58.919Z,11.87
2023-01-09T05:55:26.329Z,12.00
2023-01-09T05:57:53.678Z,11.91
2023-01-09T06:00:21.483Z,11.95
2023-01-09T06:02:49.155Z,11.90
2023-01-09T06:05:16.554Z,11.97
2023-01-09T06:07:43.972Z,11.97
2023-01-09T06:10:13.192Z,11.93
2023-01-09T06:12:41.849Z,11.87
2023-01-09T06:15:09.554Z,11.89
2023-01-09T06:17:37.158Z,11.95
2023-01-09T06:20:05.087Z,11.86
2023-01-09T06:22:32.476Z,11.86
2023-01-09T06:25:00.153Z,11.85
2023-01-09T06:27:27.595Z,11.92
2023-01-09T06:29:54.974Z,11.99
2023-01-09T06:32:22.645Z,11.92
2023-01-09T06:34:50.307Z,11.85
2023-01-09T06:37:17.709Z,11.76
2023-01-09T06:39:45.416Z,11.78
2023-01-09T06:42:12.748Z,11.75
2023-01-09T06:44:40.206Z,11.55
2023-01-09T06:47:07.858Z,11.55
2023-01-09T06:49:35.577Z,11.41
2023-01-09T06:52:05.725Z,11.44
2023-01-09T06:54:34.469Z,11.47
2023-01-09T06:57:01.910Z,11.25
2023-01-09T06:59:29.290Z,11.32
2023-01-09T07:01:57.212Z,11.34
2023-01-09T07:04:24.782Z,11.40
2023-01-09T07:06:52.206Z,11.40
2023-01-09T07:09:19.915Z,11.37
2023-01-09T07:11:47.812Z,11.32
2023-01-09T07:14:15.193Z,11.38
2023-01-09T07:16:43.088Z,11.43
2023-01-09T07:19:10.531Z,11.41
2023-01-09T07:21:37.933Z,11.49
2023-01-09T07:24:05.804Z,11.55
2023-01-09T07:26:33.173Z,11.56
2023-01-09T07:29:00.563Z,11.63
2023-01-09T07:31:28.350Z,11.56
2023-01-09T07:33:55.827Z,11.58
2023-01-09T07:36:23.178Z,11.60
2023-01-09T07:38:50.812Z,11.61
2023-01-09T07:41:18.213Z,11.72
2023-01-09T07:43:45.577Z,11.72
2023-01-09T07:46:13.196Z,11.68
2023-01-09T07:48:40.583Z,11.85
2023-01-09T07:51:07.988Z,11.83
2023-01-09T07:53:35.629Z,11.67
2023-01-09T07:56:03.029Z,11.92
2023-01-09T07:58:30.385Z,12.33
2023-01-09T08:00:58.064Z,12.44
2023-01-09T08:03:26.912Z,12.28
2023-01-09T08:05:54.317Z,12.14
2023-01-09T08:08:22.721Z,12.09
2023-01-09T08:10:50.434Z,11.95
2023-01-09T08:13:17.959Z,11.90
2023-01-09T08:15:45.425Z,11.97
2023-01-09T08:18:13.131Z,11.77
2023-01-09T08:20:40.509Z,11.89
2023-01-09T08:23:07.880Z,11.63
2023-01-09T08:25:35.568Z,11.43
2023-01-09T08:28:03.005Z,11.64
2023-01-09T08:30:30.412Z,11.38
2023-01-09T08:32:58.105Z,11.40
2023-01-09T08:35:25.467Z,11.31
2023-01-09T08:37:52.924Z,11.38
2023-01-09T08:40:20.603Z,11.39
2023-01-09T08:43:06.659Z,11.34
2023-01-09T08:45:53.157Z,11.36
2023-01-09T08:48:20.529Z,11.36
2023-01-09T08:50:48.379Z,11.15
2023-01-09T08:53:15.820Z,11.22
2023-01-09T08:55:43.558Z,11.26
2023-01-09T08:58:11.275Z,11.16
2023-01-09T09:00:38.692Z,11.07
2023-01-09T09:03:06.145Z,11.00
2023-01-09T09:05:33.904Z,11.01
2023-01-09T09:08:02.658Z,10.95
2023-01-09T09:10:30.840Z,11.07
2023-01-09T09:12:59.343Z,11.07
2023-01-09T09:15:27.869Z,11.07
2023-01-09T09:18:03.099Z,11.05
2023-01-09T09:20:32.759Z,10.94
2023-01-09T09:23:00.185Z,10.93
2023-01-09T09:25:27.980Z,11.03
2023-01-09T09:28:00.861Z,10.95
2023-01-09T09:30:28.291Z,10.96
2023-01-09T09:32:55.947Z,10.95
2023-01-09T09:35:23.471Z,10.88
2023-01-09T09:37:56.053Z,10.90
2023-01-09T09:41:01.197Z,10.86
2023-01-09T09:43:56.389Z,10.74
2023-01-09T09:47:12.176Z,10.78
2023-01-09T09:49:55.227Z,10.69
2023-01-09T09:52:47.767Z,10.75
2023-01-09T09:55:29.328Z,10.68
2023-01-09T09:57:58.785Z,10.64
2023-01-09T10:00:26.242Z,10.75
2023-01-09T10:03:02.530Z,10.70
2023-01-09T10:05:50.322Z,10.60
2023-01-09T10:08:57.134Z,10.76
2023-01-09T10:11:32.899Z,10.84
2023-01-09T10:14:13.163Z,10.72
2023-01-09T10:17:08.410Z,10.74
2023-01-09T10:19:39.049Z,10.69
2023-01-09T10:22:38.572Z,10.65
2023-01-09T10:25:16.520Z,10.58
2023-01-09T10:28:06.640Z,10.62
2023-01-09T10:30:45.232Z,10.61
2023-01-09T10:33:30.763Z,10.57
2023-01-09T10:36:11.461Z,10.54
2023-01-09T10:38:41.056Z,10.45
2023-01-09T10:41:22.440Z,10.49
2023-01-09T10:44:18.542Z,10.47
2023-01-09T10:46:54.590Z,10.40
2023-01-09T10:49:23.573Z,10.45
2023-01-09T10:51:53.329Z,10.44
2023-01-09T10:54:23.573Z,10.55
2023-01-09T10:56:56.335Z,10.53
2023-01-09T10:59:24.483Z,10.55
2023-01-09T11:01:53.648Z,10.53
2023-01-09T11:04:30.246Z,10.61
2023-01-09T11:07:21.801Z,10.63
2023-01-09T11:10:08.232Z,10.58
2023-01-09T11:12:36.555Z,10.59
2023-01-09T11:15:16.111Z,10.55
2023-01-09T11:17:43.904Z,10.58
2023-01-09T11:20:21.810Z,10.58
2023-01-09T11:22:51.599Z,10.56
2023-01-09T11:25:21.614Z,10.61
2023-01-09T11:28:01.399Z,10.79
2023-01-09T11:30:29.782Z,10.71
2023-01-09T11:32:58.575Z,10.56
2023-01-09T11:35:34.114Z,10.65
2023-01-09T11:38:06.712Z,10.55
2023-01-09T11:40:46.166Z,10.57
2023-01-09T11:43:19.798Z,10.56
2023-01-09T11:46:01.206Z,10.63
2023-01-09T11:48:29.652Z,10.75
2023-01-09T11:50:58.897Z,10.85
2023-01-09T11:53:27.191Z,10.69
2023-01-09T11:56:01.221Z,10.65
2023-01-09T11:58:33.068Z,10.76
2023-01-09T12:01:31.490Z,10.71
2023-01-09T12:04:11.387Z,10.74
2023-01-09T12:07:16.170Z,10.73
2023-01-09T12:10:19.064Z,10.80
2023-01-09T12:12:52.946Z,10.85
2023-01-09T12:15:24.742Z,10.80
2023-01-09T12:18:29.652Z,10.91
2023-01-09T12:21:34.431Z,10.79
2023-01-09T12:24:13.972Z,10.79
2023-01-09T12:27:00.421Z,10.84
2023-01-09T12:29:40.827Z,10.87
2023-01-09T12:32:13.868Z,10.92
2023-01-09T12:35:04.467Z,11.00
2023-01-09T12:37:59.282Z,11.01
2023-01-09T12:40:42.979Z,11.06
2023-01-09T12:43:20.280Z,10.95
2023-01-09T12:46:09.135Z,10.92
2023-01-09T12:49:06.660Z,10.92
2023-01-09T12:51:53.031Z,10.93
2023-01-09T12:54:30.315Z,11.04
2023-01-09T12:57:01.401Z,11.01
2023-01-09T12:59:34.786Z,10.97
2023-01-09T13:02:35.211Z,11.00
2023-01-09T13:05:25.505Z,10.98
2023-01-09T13:08:32.201Z,10.93
2023-01-09T13:11:19.895Z,10.94
2023-01-09T13:14:22.273Z,11.03
2023-01-09T13:16:52.162Z,10.96
2023-01-09T13:19:25.290Z,11.07
2023-01-09T13:21:53.578Z,11.01
2023-01-09T13:24:39.381Z,11.12
2023-01-09T13:27:14.644Z,11.03
2023-01-09T13:29:44.553Z,11.01
2023-01-09T13:32:15.149Z,11.06
2023-01-09T13:34:45.673Z,11.08
2023-01-09T13:37:26.325Z,11.06
2023-01-09T13:40:02.167Z,11.06
2023-01-09T13:42:47.833Z,11.02
2023-01-09T13:45:17.940Z,11.03
2023-01-09T13:47:45.774Z,11.21
2023-01-09T13:50:27.083Z,11.15
2023-01-09T13:52:54.870Z,11.17
2023-01-09T13:55:26.122Z,11.04
2023-01-09T13:58:05.544Z,11.18
2023-01-09T14:00:36.115Z,11.16
2023-01-09T14:03:08.470Z,11.15
2023-01-09T14:05:35.816Z,11.12
2023-01-09T14:08:18.755Z,11.13
2023-01-09T14:10:48.721Z,11.20
2023-01-09T14:13:18.833Z,11.29
2023-01-09T14:15:47.647Z,11.16
2023-01-09T14:18:30.524Z,10.94
2023-01-09T14:23:52.859Z,10.89
2023-01-09T14:26:24.535Z,10.88
2023-01-09T14:28:52.120Z,10.82
2023-01-09T14:31:37.774Z,10.87
2023-01-09T14:34:34.154Z,10.83
2023-01-09T14:37:02.405Z,10.84
2023-01-09T14:39:32.067Z,10.90
2023-01-09T14:42:09.180Z,10.92
2023-01-09T14:44:42.998Z,10.92
2023-01-09T14:47:51.778Z,10.82
2023-01-09T14:50:22.298Z,10.66
2023-01-09T14:52:55.600Z,10.77
2023-01-09T14:55:28.887Z,10.79
2023-01-09T14:57:57.039Z,10.77
2023-01-09T15:00:25.123Z,10.74
2023-01-09T15:02:53.313Z,10.70
2023-01-09T15:05:23.971Z,10.66
2023-01-09T15:07:57.580Z,10.52
2023-01-09T15:10:52.160Z,10.61
2023-01-09T15:13:28.735Z,10.42
2023-01-09T15:15:56.287Z,10.30
2023-01-09T15:18:25.403Z,10.13
2023-01-09T15:20:54.749Z,10.48
2023-01-09T15:23:29.386Z,10.35
2023-01-09T15:26:20.104Z,10.60
2023-01-09T15:28:47.442Z,10.49
2023-01-09T15:31:17.318Z,10.60
2023-01-09T15:33:46.522Z,10.57
2023-01-09T15:36:21.290Z,10.48
2023-01-09T15:38:50.257Z,10.61
2023-01-09T15:41:38.811Z,10.58
2023-01-09T15:44:11.031Z,10.72
2023-01-09T15:46:39.571Z,10.74
2023-01-09T15:49:11.165Z,10.70
2023-01-09T15:51:38.626Z,10.83
2023-01-09T15:54:06.060Z,10.94
2023-01-09T15:56:35.452Z,11.14
2023-01-09T15:59:02.882Z,10.98
2023-01-09T16:01:35.292Z,11.00
2023-01-09T16:04:18.381Z,11.03
2023-01-09T16:06:48.428Z,11.05
2023-01-09T16:09:24.109Z,11.16
2023-01-09T16:11:54.029Z,11.19
2023-01-09T16:14:35.289Z,10.95
2023-01-09T16:17:06.864Z,10.90
2023-01-09T16:19:46.452Z,10.95
2023-01-09T16:22:23.252Z,11.01
2023-01-09T16:24:54.849Z,11.02
2023-01-09T16:27:24.168Z,11.03
2023-01-09T16:29:57.547Z,10.96
2023-01-09T16:32:31.447Z,10.97
2023-01-09T16:35:06.084Z,11.07
2023-01-09T16:37:34.212Z,11.16
2023-01-09T16:40:04.725Z,11.14
2023-01-09T16:42:51.438Z,11.18
2023-01-09T16:45:19.727Z,11.24
2023-01-09T16:47:47.159Z,11.20
2023-01-09T16:50:14.564Z,11.14
2023-01-09T16:52:42.363Z,10.97
2023-01-09T16:55:11.302Z,11.00
2023-01-09T16:57:39.012Z,11.06
2023-01-09T17:00:07.541Z,11.29
2023-01-09T17:02:35.008Z,11.10
2023-01-09T17:05:03.082Z,11.07
2023-01-09T17:07:31.114Z,11.10
2023-01-09T17:09:58.794Z,11.03
2023-01-09T17:12:26.158Z,11.04
2023-01-09T17:14:53.927Z,11.06
2023-01-09T17:17:21.715Z,11.13
2023-01-09T17:19:49.168Z,11.10
2023-01-09T17:22:16.858Z,11.17
2023-01-09T17:25:02.693Z,11.11
2023-01-09T17:27:52.081Z,11.24
2023-01-09T17:30:20.360Z,11.16
2023-01-09T17:32:48.791Z,11.35
2023-01-09T17:35:16.424Z,11.39
2023-01-09T17:37:44.055Z,11.27
2023-01-09T17:40:22.781Z,11.10
2023-01-09T17:42:50.206Z,11.24
2023-01-09T17:45:18.061Z,11.13
2023-01-09T17:47:45.471Z,10.95
2023-01-09T17:50:20.884Z,10.97
2023-01-09T17:52:49.216Z,11.05
2023-01-09T17:55:16.905Z,10.91
2023-01-09T17:57:44.818Z,10.88
2023-01-09T18:00:28.288Z,10.98
2023-01-09T18:02:57.158Z,10.93
2023-01-09T18:05:25.504Z,10.88
2023-01-09T18:07:53.710Z,10.99
2023-01-09T18:10:23.911Z,10.97
2023-01-09T18:12:52.158Z,10.89
2023-01-09T18:15:20.171Z,10.85
2023-01-09T18:17:48.061Z,10.94
2023-01-09T18:20:15.486Z,10.85
2023-01-09T18:22:42.970Z,10.96
2023-01-09T18:25:11.051Z,10.86
2023-01-09T18:27:38.668Z,11.01
2023-01-09T18:30:07.038Z,11.15
2023-01-09T18:32:34.803Z,11.13
2023-01-09T18:35:04.064Z,11.13
2023-01-09T18:37:31.693Z,11.10
2023-01-09T18:39:59.375Z,11.04
2023-01-09T18:42:26.969Z,11.07
2023-01-09T18:44:54.319Z,10.94
2023-01-09T18:47:21.951Z,11.13
2023-01-09T18:49:49.308Z,11.13
2023-01-09T18:52:16.796Z,11.16
2023-01-09T18:54:44.454Z,10.93
2023-01-09T18:57:12.167Z,10.93
2023-01-09T18:59:39.504Z,11.02
2023-01-09T19:02:08.298Z,11.04
2023-01-09T19:04:35.733Z,11.22
2023-01-09T19:07:03.129Z,11.09
2023-01-09T19:09:30.783Z,10.98
2023-01-09T19:11:58.194Z,11.08
2023-01-09T19:14:25.610Z,11.16
2023-01-09T19:16:54.502Z,11.06
2023-01-09T19:19:21.882Z,10.99
2023-01-09T19:21:49.376Z,10.75
2023-01-09T19:24:17.745Z,10.72
2023-01-09T19:26:47.733Z,10.71
2023-01-09T19:29:15.369Z,10.44
2023-01-09T19:31:44.908Z,10.55
2023-01-09T19:34:13.282Z,10.59
2023-01-09T19:36:40.689Z,10.58
2023-01-09T19:39:08.615Z,10.75
2023-01-09T19:41:35.973Z,10.83
2023-01-09T19:44:03.372Z,10.88
2023-01-09T19:46:33.479Z,10.94
2023-01-09T19:49:04.649Z,11.00
2023-01-09T19:51:33.015Z,11.07
2023-01-09T19:56:34.988Z,10.98
2023-01-09T19:59:04.305Z,11.00
2023-01-09T20:01:36.343Z,10.85
2023-01-09T20:04:09.980Z,10.85
2023-01-09T20:06:41.321Z,10.94
2023-01-09T20:09:11.075Z,10.96
2023-01-09T20:11:41.075Z,11.04
2023-01-09T20:14:13.648Z,10.94
2023-01-09T20:16:41.857Z,10.66
2023-01-09T20:19:11.778Z,10.57
2023-01-09T20:21:39.168Z,10.57
2023-01-09T20:24:08.347Z,10.42
2023-01-09T20:26:37.282Z,10.42
2023-01-09T20:29:04.749Z,10.31
2023-01-09T20:31:32.987Z,10.06
2023-01-09T20:34:01.486Z,10.08
2023-01-09T20:36:30.515Z,10.05
2023-01-09T20:38:59.964Z,10.14
2023-01-09T20:41:29.403Z,10.08
2023-01-09T20:44:02.146Z,10.12
2023-01-09T20:46:31.327Z,10.09
2023-01-09T20:48:59.471Z,10.17
2023-01-09T20:51:26.892Z,9.97
2023-01-09T20:53:58.425Z,10.14
2023-01-09T20:56:26.946Z,10.22
2023-01-09T20:58:55.066Z,9.97
2023-01-09T21:01:23.220Z,10.17
2023-01-09T21:03:51.858Z,10.28
2023-01-09T21:06:20.826Z,10.38
2023-01-09T21:08:50.745Z,10.02
2023-01-09T21:11:18.947Z,10.09
2023-01-09T21:13:46.793Z,10.15
2023-01-09T21:16:16.864Z,10.25
2023-01-09T21:18:44.564Z,10.18
2023-01-09T21:21:16.077Z,10.10
2023-01-09T21:23:51.903Z,10.19
2023-01-09T21:26:22.497Z,10.31
2023-01-09T21:28:55.018Z,10.36
2023-01-09T21:31:33.368Z,10.50
2023-01-09T21:34:03.796Z,10.42
2023-01-09T21:36:32.085Z,10.29
2023-01-09T21:38:59.623Z,10.26
2023-01-09T21:41:45.755Z,10.49
2023-01-09T21:44:32.191Z,10.51
2023-01-09T21:47:01.712Z,10.57
2023-01-09T21:49:31.233Z,10.56
2023-01-09T21:51:58.731Z,10.69
2023-01-09T21:54:26.391Z,10.88
2023-01-09T21:56:54.703Z,10.86
2023-01-09T21:59:22.329Z,10.81
2023-01-09T22:01:49.799Z,10.84
2023-01-09T22:04:19.658Z,10.81
2023-01-09T22:06:47.163Z,10.88
2023-01-09T22:09:14.969Z,10.94
2023-01-09T22:11:45.747Z,10.85
2023-01-09T22:14:18.938Z,10.72
2023-01-09T22:16:47.895Z,10.86
2023-01-09T22:19:19.625Z,10.66
2023-01-09T22:21:48.695Z,10.72
2023-01-09T22:24:18.228Z,10.84
2023-01-09T22:26:45.829Z,10.79
2023-01-09T22:29:13.927Z,10.70
2023-01-09T22:31:43.008Z,10.75
2023-01-09T22:34:15.207Z,10.67
2023-01-09T22:36:43.821Z,10.67
2023-01-09T22:39:15.842Z,10.58
2023-01-09T22:41:43.532Z,10.41
2023-01-09T22:44:11.988Z,10.44
2023-01-09T22:46:39.731Z,10.37
2023-01-09T22:49:07.508Z,10.47
2023-01-09T22:51:34.904Z,10.47
2023-01-09T22:54:02.410Z,10.70
2023-01-09T22:56:32.123Z,10.72
2023-01-09T22:59:00.848Z,10.66
2023-01-09T23:01:28.222Z,10.66
2023-01-09T23:03:56.166Z,10.71
2023-01-09T23:06:25.197Z,10.83
2023-01-09T23:08:53.213Z,10.72
2023-01-09T23:11:43.562Z,10.79
2023-01-09T23:14:11.458Z,10.65
2023-01-09T23:16:39.464Z,10.72
2023-01-09T23:19:08.866Z,10.66
2023-01-09T23:21:36.670Z,10.39
2023-01-09T23:24:06.889Z,10.46
2023-01-09T23:26:35.239Z,10.43
2023-01-09T23:29:03.014Z,10.58
2023-01-09T23:31:30.700Z,10.57
2023-01-09T23:33:58.146Z,10.60
2023-01-09T23:36:25.552Z,10.54
2023-01-09T23:38:53.310Z,10.52
2023-01-09T23:41:22.449Z,10.71
2023-01-09T23:43:49.843Z,10.62
2023-01-09T23:46:17.523Z,10.50
2023-01-09T23:48:44.942Z,10.61
2023-01-09T23:51:12.279Z,10.53
2023-01-09T23:53:39.982Z,10.60
2023-01-09T23:56:07.456Z,10.59
2023-01-09T23:58:35.992Z,10.53
